sensor_id;sensor_type;location;lat;lon;timestamp;P1;durP1;ratioP1;P2;durP2;ratioP2
37831;SDS011;23671;38.090;-122.570;2023-02-28T00:01:28;8.32;;;0.85;;
37831;SDS011;23671;38.090;-122.570;2023-02-28T00:03:55;3.05;;;0.82;;
37831;SDS011;23671;38.090;-122.570;2023-02-28T00:06:22;3.67;;;0.82;;
37831;SDS011;23671;38.090;-122.570;2023-02-28T00:08:50;5.97;;;0.82;;
37831;SDS011;23671;38.090;-122.570;2023-02-28T00:11:17;6.38;;;1.00;;
37831;SDS011;23671;38.090;-122.570;2023-02-28T00:13:45;4.30;;;0.90;;
37831;SDS011;23671;38.090;-122.570;2023-02-28T00:16:14;7.80;;;0.93;;
37831;SDS011;23671;38.090;-122.570;2023-02-28T00:18:43;4.32;;;0.80;;
37831;SDS011;23671;38.090;-122.570;2023-02-28T00:21:12;2.57;;;1.00;;
37831;SDS011;23671;38.090;-122.570;2023-02-28T00:23:40;4.60;;;0.77;;
37831;SDS011;23671;38.090;-122.570;2023-02-28T00:26:07;3.10;;;0.73;;
37831;SDS011;23671;38.090;-122.570;2023-02-28T00:28:34;4.45;;;1.10;;
37831;SDS011;23671;38.090;-122.570;2023-02-28T00:31:02;3.30;;;0.80;;
37831;SDS011;23671;38.090;-122.570;2023-02-28T00:33:29;5.43;;;1.02;;
37831;SDS011;23671;38.090;-122.570;2023-02-28T00:36:06;2.83;;;0.73;;
37831;SDS011;23671;38.090;-122.570;2023-02-28T00:38:36;2.83;;;0.73;;
37831;SDS011;23671;38.090;-122.570;2023-02-28T00:41:04;3.40;;;0.90;;
37831;SDS011;23671;38.090;-122.570;2023-02-28T00:43:35;4.72;;;0.90;;
37831;SDS011;23671;38.090;-122.570;2023-02-28T00:46:04;4.72;;;0.70;;
37831;SDS011;23671;38.090;-122.570;2023-02-28T00:48:32;2.43;;;0.80;;
37831;SDS011;23671;38.090;-122.570;2023-02-28T00:50:59;4.18;;;0.60;;
37831;SDS011;23671;38.090;-122.570;2023-02-28T00:53:27;1.80;;;0.68;;
37831;SDS011;23671;38.090;-122.570;2023-02-28T00:55:54;4.18;;;0.75;;
37831;SDS011;23671;38.090;-122.570;2023-02-28T00:58:21;7.43;;;0.75;;
37831;SDS011;23671;38.090;-122.570;2023-02-28T01:00:48;3.20;;;0.93;;
37831;SDS011;23671;38.090;-122.570;2023-02-28T01:03:18;4.85;;;0.80;;
37831;SDS011;23671;38.090;-122.570;2023-02-28T01:05:46;2.90;;;0.70;;
37831;SDS011;23671;38.090;-122.570;2023-02-28T01:08:13;5.75;;;1.08;;
37831;SDS011;23671;38.090;-122.570;2023-02-28T01:10:41;4.13;;;0.57;;
37831;SDS011;23671;38.090;-122.570;2023-02-28T01:13:08;3.47;;;0.68;;
37831;SDS011;23671;38.090;-122.570;2023-02-28T01:15:35;2.78;;;0.75;;
37831;SDS011;23671;38.090;-122.570;2023-02-28T01:18:04;2.40;;;0.85;;
37831;SDS011;23671;38.090;-122.570;2023-02-28T01:20:31;3.97;;;1.00;;
37831;SDS011;23671;38.090;-122.570;2023-02-28T01:22:59;4.53;;;0.90;;
37831;SDS011;23671;38.090;-122.570;2023-02-28T01:25:26;2.83;;;0.70;;
37831;SDS011;23671;38.090;-122.570;2023-02-28T01:27:54;3.83;;;1.02;;
37831;SDS011;23671;38.090;-122.570;2023-02-28T01:30:21;4.03;;;0.63;;
37831;SDS011;23671;38.090;-122.570;2023-02-28T01:32:48;4.57;;;0.80;;
37831;SDS011;23671;38.090;-122.570;2023-02-28T01:35:16;2.70;;;0.70;;
37831;SDS011;23671;38.090;-122.570;2023-02-28T01:37:43;4.40;;;0.80;;
37831;SDS011;23671;38.090;-122.570;2023-02-28T01:40:11;4.22;;;0.47;;
37831;SDS011;23671;38.090;-122.570;2023-02-28T01:42:38;3.28;;;0.70;;
37831;SDS011;23671;38.090;-122.570;2023-02-28T01:45:09;3.70;;;0.70;;
37831;SDS011;23671;38.090;-122.570;2023-02-28T01:47:50;2.25;;;0.65;;
37831;SDS011;23671;38.090;-122.570;2023-02-28T01:50:31;3.90;;;0.60;;
37831;SDS011;23671;38.090;-122.570;2023-02-28T01:53:06;3.85;;;0.70;;
37831;SDS011;23671;38.090;-122.570;2023-02-28T01:55:39;5.57;;;0.80;;
37831;SDS011;23671;38.090;-122.570;2023-02-28T01:58:11;3.17;;;0.60;;
37831;SDS011;23671;38.090;-122.570;2023-02-28T02:00:38;2.47;;;0.63;;
37831;SDS011;23671;38.090;-122.570;2023-02-28T02:03:11;4.70;;;0.90;;
37831;SDS011;23671;38.090;-122.570;2023-02-28T02:05:44;3.60;;;0.50;;
37831;SDS011;23671;38.090;-122.570;2023-02-28T02:08:18;4.00;;;0.60;;
37831;SDS011;23671;38.090;-122.570;2023-02-28T02:10:52;4.55;;;0.73;;
37831;SDS011;23671;38.090;-122.570;2023-02-28T02:22:35;2.25;;;0.60;;
37831;SDS011;23671;38.090;-122.570;2023-02-28T02:28:32;3.95;;;0.60;;
37831;SDS011;23671;38.090;-122.570;2023-02-28T02:31:12;0.95;;;0.30;;
37831;SDS011;23671;38.090;-122.570;2023-02-28T02:42:24;2.20;;;0.60;;
37831;SDS011;23671;38.090;-122.570;2023-02-28T02:45:00;1.02;;;0.35;;
37831;SDS011;23671;38.090;-122.570;2023-02-28T02:47:42;2.38;;;0.50;;
37831;SDS011;23671;38.090;-122.570;2023-02-28T02:50:12;1.63;;;0.53;;
37831;SDS011;23671;38.090;-122.570;2023-02-28T02:52:49;2.15;;;0.60;;
37831;SDS011;23671;38.090;-122.570;2023-02-28T02:55:20;2.58;;;0.50;;
37831;SDS011;23671;38.090;-122.570;2023-02-28T02:57:49;1.30;;;0.60;;
37831;SDS011;23671;38.090;-122.570;2023-02-28T03:00:24;2.30;;;0.38;;
37831;SDS011;23671;38.090;-122.570;2023-02-28T03:02:56;3.72;;;0.68;;
37831;SDS011;23671;38.090;-122.570;2023-02-28T03:05:26;3.13;;;0.63;;
37831;SDS011;23671;38.090;-122.570;2023-02-28T03:07:59;3.22;;;0.68;;
37831;SDS011;23671;38.090;-122.570;2023-02-28T03:10:35;1.83;;;0.75;;
37831;SDS011;23671;38.090;-122.570;2023-02-28T03:13:30;4.97;;;1.02;;
37831;SDS011;23671;38.090;-122.570;2023-02-28T03:21:11;1.40;;;0.70;;
37831;SDS011;23671;38.090;-122.570;2023-02-28T03:24:08;4.70;;;1.00;;
37831;SDS011;23671;38.090;-122.570;2023-02-28T03:26:43;2.67;;;1.00;;
37831;SDS011;23671;38.090;-122.570;2023-02-28T03:29:32;3.47;;;1.00;;
37831;SDS011;23671;38.090;-122.570;2023-02-28T03:37:38;3.67;;;1.30;;
37831;SDS011;23671;38.090;-122.570;2023-02-28T03:40:14;1.90;;;1.00;;
37831;SDS011;23671;38.090;-122.570;2023-02-28T03:42:46;1.65;;;0.90;;
37831;SDS011;23671;38.090;-122.570;2023-02-28T03:45:25;3.90;;;1.10;;
37831;SDS011;23671;38.090;-122.570;2023-02-28T03:48:01;4.65;;;1.08;;
37831;SDS011;23671;38.090;-122.570;2023-02-28T03:50:45;2.03;;;0.90;;
37831;SDS011;23671;38.090;-122.570;2023-02-28T03:53:19;3.38;;;1.17;;
37831;SDS011;23671;38.090;-122.570;2023-02-28T03:58:32;3.83;;;1.30;;
37831;SDS011;23671;38.090;-122.570;2023-02-28T04:01:12;5.20;;;1.73;;
37831;SDS011;23671;38.090;-122.570;2023-02-28T04:03:46;2.53;;;1.25;;
37831;SDS011;23671;38.090;-122.570;2023-02-28T04:06:14;5.72;;;2.33;;
37831;SDS011;23671;38.090;-122.570;2023-02-28T04:08:47;4.10;;;1.33;;
37831;SDS011;23671;38.090;-122.570;2023-02-28T04:13:44;1.80;;;1.40;;
37831;SDS011;23671;38.090;-122.570;2023-02-28T04:16:12;3.80;;;1.25;;
37831;SDS011;23671;38.090;-122.570;2023-02-28T04:18:39;3.10;;;1.30;;
37831;SDS011;23671;38.090;-122.570;2023-02-28T04:21:12;2.20;;;1.30;;
37831;SDS011;23671;38.090;-122.570;2023-02-28T04:23:39;3.30;;;1.60;;
37831;SDS011;23671;38.090;-122.570;2023-02-28T04:26:07;3.40;;;1.45;;
37831;SDS011;23671;38.090;-122.570;2023-02-28T04:28:36;6.53;;;1.75;;
37831;SDS011;23671;38.090;-122.570;2023-02-28T04:31:04;4.55;;;1.80;;
37831;SDS011;23671;38.090;-122.570;2023-02-28T04:33:31;3.60;;;1.65;;
37831;SDS011;23671;38.090;-122.570;2023-02-28T04:36:00;3.70;;;1.60;;
37831;SDS011;23671;38.090;-122.570;2023-02-28T04:38:33;3.72;;;1.70;;
37831;SDS011;23671;38.090;-122.570;2023-02-28T04:41:01;4.53;;;1.80;;
37831;SDS011;23671;38.090;-122.570;2023-02-28T04:43:29;2.58;;;1.50;;
37831;SDS011;23671;38.090;-122.570;2023-02-28T04:45:57;5.32;;;1.98;;
37831;SDS011;23671;38.090;-122.570;2023-02-28T04:48:31;5.90;;;1.88;;
37831;SDS011;23671;38.090;-122.570;2023-02-28T04:51:00;3.50;;;1.40;;
37831;SDS011;23671;38.090;-122.570;2023-02-28T04:53:31;4.35;;;2.08;;
37831;SDS011;23671;38.090;-122.570;2023-02-28T04:55:59;4.00;;;2.10;;
37831;SDS011;23671;38.090;-122.570;2023-02-28T04:58:26;5.88;;;2.45;;
37831;SDS011;23671;38.090;-122.570;2023-02-28T05:00:53;4.55;;;2.17;;
37831;SDS011;23671;38.090;-122.570;2023-02-28T05:03:26;4.50;;;1.90;;
37831;SDS011;23671;38.090;-122.570;2023-02-28T05:05:53;3.88;;;2.33;;
37831;SDS011;23671;38.090;-122.570;2023-02-28T05:08:20;3.65;;;1.85;;
37831;SDS011;23671;38.090;-122.570;2023-02-28T05:10:48;5.97;;;2.38;;
37831;SDS011;23671;38.090;-122.570;2023-02-28T05:13:15;6.18;;;2.47;;
37831;SDS011;23671;38.090;-122.570;2023-02-28T05:15:41;3.55;;;2.20;;
37831;SDS011;23671;38.090;-122.570;2023-02-28T05:18:08;5.00;;;2.30;;
37831;SDS011;23671;38.090;-122.570;2023-02-28T05:20:35;4.57;;;2.38;;
37831;SDS011;23671;38.090;-122.570;2023-02-28T05:23:03;6.65;;;2.70;;
37831;SDS011;23671;38.090;-122.570;2023-02-28T05:25:30;5.68;;;2.40;;
37831;SDS011;23671;38.090;-122.570;2023-02-28T05:27:57;3.47;;;2.25;;
37831;SDS011;23671;38.090;-122.570;2023-02-28T05:30:25;3.33;;;2.15;;
37831;SDS011;23671;38.090;-122.570;2023-02-28T05:32:52;4.63;;;2.15;;
37831;SDS011;23671;38.090;-122.570;2023-02-28T05:35:19;4.25;;;2.22;;
37831;SDS011;23671;38.090;-122.570;2023-02-28T05:37:46;6.60;;;1.92;;
37831;SDS011;23671;38.090;-122.570;2023-02-28T05:40:13;6.03;;;2.13;;
37831;SDS011;23671;38.090;-122.570;2023-02-28T05:42:40;6.30;;;3.80;;
37831;SDS011;23671;38.090;-122.570;2023-02-28T05:45:08;5.30;;;2.08;;
37831;SDS011;23671;38.090;-122.570;2023-02-28T05:47:36;3.65;;;2.00;;
37831;SDS011;23671;38.090;-122.570;2023-02-28T05:50:03;4.53;;;1.95;;
37831;SDS011;23671;38.090;-122.570;2023-02-28T05:52:31;4.93;;;2.60;;
37831;SDS011;23671;38.090;-122.570;2023-02-28T05:54:58;4.43;;;2.00;;
37831;SDS011;23671;38.090;-122.570;2023-02-28T05:57:25;4.43;;;2.25;;
37831;SDS011;23671;38.090;-122.570;2023-02-28T05:59:52;2.85;;;2.10;;
37831;SDS011;23671;38.090;-122.570;2023-02-28T06:02:19;4.47;;;2.00;;
37831;SDS011;23671;38.090;-122.570;2023-02-28T06:04:46;4.78;;;1.88;;
37831;SDS011;23671;38.090;-122.570;2023-02-28T06:07:14;2.97;;;2.20;;
37831;SDS011;23671;38.090;-122.570;2023-02-28T06:09:42;2.73;;;1.60;;
37831;SDS011;23671;38.090;-122.570;2023-02-28T06:12:10;5.13;;;2.17;;
37831;SDS011;23671;38.090;-122.570;2023-02-28T06:14:37;6.10;;;2.47;;
37831;SDS011;23671;38.090;-122.570;2023-02-28T06:17:04;8.13;;;2.63;;
37831;SDS011;23671;38.090;-122.570;2023-02-28T06:19:31;4.00;;;2.30;;
37831;SDS011;23671;38.090;-122.570;2023-02-28T06:21:59;5.22;;;2.30;;
37831;SDS011;23671;38.090;-122.570;2023-02-28T06:24:26;4.07;;;1.92;;
37831;SDS011;23671;38.090;-122.570;2023-02-28T06:26:53;5.70;;;2.33;;
37831;SDS011;23671;38.090;-122.570;2023-02-28T06:29:20;3.90;;;2.30;;
37831;SDS011;23671;38.090;-122.570;2023-02-28T06:31:48;4.55;;;1.90;;
37831;SDS011;23671;38.090;-122.570;2023-02-28T06:34:15;6.03;;;2.58;;
37831;SDS011;23671;38.090;-122.570;2023-02-28T06:36:43;5.25;;;2.33;;
37831;SDS011;23671;38.090;-122.570;2023-02-28T06:39:10;5.40;;;3.03;;
37831;SDS011;23671;38.090;-122.570;2023-02-28T06:41:38;5.60;;;2.08;;
37831;SDS011;23671;38.090;-122.570;2023-02-28T06:44:08;6.32;;;2.47;;
37831;SDS011;23671;38.090;-122.570;2023-02-28T06:46:40;4.93;;;2.00;;
37831;SDS011;23671;38.090;-122.570;2023-02-28T06:49:09;7.25;;;2.00;;
37831;SDS011;23671;38.090;-122.570;2023-02-28T06:51:38;5.95;;;2.25;;
37831;SDS011;23671;38.090;-122.570;2023-02-28T06:54:07;5.70;;;2.58;;
37831;SDS011;23671;38.090;-122.570;2023-02-28T06:56:34;4.60;;;2.22;;
37831;SDS011;23671;38.090;-122.570;2023-02-28T06:59:02;7.82;;;2.10;;
37831;SDS011;23671;38.090;-122.570;2023-02-28T07:01:29;4.78;;;2.17;;
37831;SDS011;23671;38.090;-122.570;2023-02-28T07:03:59;3.50;;;1.70;;
37831;SDS011;23671;38.090;-122.570;2023-02-28T07:06:26;5.35;;;2.05;;
37831;SDS011;23671;38.090;-122.570;2023-02-28T07:08:54;5.55;;;2.42;;
37831;SDS011;23671;38.090;-122.570;2023-02-28T07:11:22;4.35;;;2.08;;
37831;SDS011;23671;38.090;-122.570;2023-02-28T07:13:54;4.93;;;1.95;;
37831;SDS011;23671;38.090;-122.570;2023-02-28T07:16:22;3.63;;;2.03;;
37831;SDS011;23671;38.090;-122.570;2023-02-28T07:18:52;5.22;;;2.00;;
37831;SDS011;23671;38.090;-122.570;2023-02-28T07:21:19;4.10;;;2.00;;
37831;SDS011;23671;38.090;-122.570;2023-02-28T07:23:46;4.80;;;2.00;;
37831;SDS011;23671;38.090;-122.570;2023-02-28T07:26:14;4.43;;;2.00;;
37831;SDS011;23671;38.090;-122.570;2023-02-28T07:28:44;4.75;;;2.00;;
37831;SDS011;23671;38.090;-122.570;2023-02-28T07:31:13;6.95;;;2.45;;
37831;SDS011;23671;38.090;-122.570;2023-02-28T07:33:41;3.88;;;1.98;;
37831;SDS011;23671;38.090;-122.570;2023-02-28T07:36:09;4.35;;;2.20;;
37831;SDS011;23671;38.090;-122.570;2023-02-28T07:38:42;4.60;;;2.25;;
37831;SDS011;23671;38.090;-122.570;2023-02-28T07:41:13;3.88;;;2.30;;
37831;SDS011;23671;38.090;-122.570;2023-02-28T07:43:41;4.70;;;1.90;;
37831;SDS011;23671;38.090;-122.570;2023-02-28T07:46:10;4.30;;;1.73;;
37831;SDS011;23671;38.090;-122.570;2023-02-28T07:48:40;4.07;;;1.90;;
37831;SDS011;23671;38.090;-122.570;2023-02-28T07:51:08;5.65;;;2.00;;
37831;SDS011;23671;38.090;-122.570;2023-02-28T07:53:35;3.50;;;2.28;;
37831;SDS011;23671;38.090;-122.570;2023-02-28T07:56:03;3.88;;;1.85;;
37831;SDS011;23671;38.090;-122.570;2023-02-28T07:58:30;5.78;;;2.10;;
37831;SDS011;23671;38.090;-122.570;2023-02-28T08:01:04;4.53;;;2.05;;
37831;SDS011;23671;38.090;-122.570;2023-02-28T08:03:35;5.10;;;2.17;;
37831;SDS011;23671;38.090;-122.570;2023-02-28T08:06:04;5.40;;;1.77;;
37831;SDS011;23671;38.090;-122.570;2023-02-28T08:08:33;4.82;;;2.15;;
37831;SDS011;23671;38.090;-122.570;2023-02-28T08:11:01;3.83;;;1.95;;
37831;SDS011;23671;38.090;-122.570;2023-02-28T08:13:29;4.43;;;1.77;;
37831;SDS011;23671;38.090;-122.570;2023-02-28T08:15:56;8.02;;;2.40;;
37831;SDS011;23671;38.090;-122.570;2023-02-28T08:18:23;3.88;;;1.90;;
37831;SDS011;23671;38.090;-122.570;2023-02-28T08:20:51;3.63;;;1.70;;
37831;SDS011;23671;38.090;-122.570;2023-02-28T08:23:20;6.28;;;2.03;;
37831;SDS011;23671;38.090;-122.570;2023-02-28T08:25:56;4.53;;;1.65;;
37831;SDS011;23671;38.090;-122.570;2023-02-28T08:28:23;2.22;;;1.70;;
37831;SDS011;23671;38.090;-122.570;2023-02-28T08:30:50;3.53;;;1.58;;
37831;SDS011;23671;38.090;-122.570;2023-02-28T08:33:17;4.78;;;1.83;;
37831;SDS011;23671;38.090;-122.570;2023-02-28T08:35:44;3.35;;;1.80;;
37831;SDS011;23671;38.090;-122.570;2023-02-28T08:38:11;4.22;;;1.45;;
37831;SDS011;23671;38.090;-122.570;2023-02-28T08:40:38;4.25;;;1.67;;
37831;SDS011;23671;38.090;-122.570;2023-02-28T08:43:05;3.15;;;1.52;;
37831;SDS011;23671;38.090;-122.570;2023-02-28T08:45:32;3.90;;;1.75;;
37831;SDS011;23671;38.090;-122.570;2023-02-28T08:47:59;3.47;;;1.50;;
37831;SDS011;23671;38.090;-122.570;2023-02-28T08:50:26;3.50;;;1.60;;
37831;SDS011;23671;38.090;-122.570;2023-02-28T08:52:53;4.93;;;1.55;;
37831;SDS011;23671;38.090;-122.570;2023-02-28T08:55:20;3.75;;;2.17;;
37831;SDS011;23671;38.090;-122.570;2023-02-28T08:57:47;4.38;;;1.80;;
37831;SDS011;23671;38.090;-122.570;2023-02-28T09:00:14;4.20;;;1.63;;
37831;SDS011;23671;38.090;-122.570;2023-02-28T09:02:42;3.92;;;1.63;;
37831;SDS011;23671;38.090;-122.570;2023-02-28T09:05:09;3.88;;;1.60;;
37831;SDS011;23671;38.090;-122.570;2023-02-28T09:07:36;3.38;;;1.38;;
37831;SDS011;23671;38.090;-122.570;2023-02-28T09:10:03;2.28;;;1.40;;
37831;SDS011;23671;38.090;-122.570;2023-02-28T09:12:32;2.13;;;1.30;;
37831;SDS011;23671;38.090;-122.570;2023-02-28T09:15:01;4.30;;;1.98;;
37831;SDS011;23671;38.090;-122.570;2023-02-28T09:17:28;3.22;;;1.42;;
37831;SDS011;23671;38.090;-122.570;2023-02-28T09:19:56;5.00;;;1.30;;
37831;SDS011;23671;38.090;-122.570;2023-02-28T09:22:23;2.70;;;1.35;;
37831;SDS011;23671;38.090;-122.570;2023-02-28T09:24:50;4.50;;;1.65;;
37831;SDS011;23671;38.090;-122.570;2023-02-28T09:27:17;4.28;;;1.55;;
37831;SDS011;23671;38.090;-122.570;2023-02-28T09:29:44;3.97;;;1.30;;
37831;SDS011;23671;38.090;-122.570;2023-02-28T09:32:11;3.08;;;1.40;;
37831;SDS011;23671;38.090;-122.570;2023-02-28T09:34:38;3.67;;;1.42;;
37831;SDS011;23671;38.090;-122.570;2023-02-28T09:37:05;3.92;;;1.50;;
37831;SDS011;23671;38.090;-122.570;2023-02-28T09:39:33;3.83;;;1.63;;
37831;SDS011;23671;38.090;-122.570;2023-02-28T09:42:00;3.67;;;1.58;;
37831;SDS011;23671;38.090;-122.570;2023-02-28T09:44:42;3.72;;;1.35;;
37831;SDS011;23671;38.090;-122.570;2023-02-28T09:49:56;3.67;;;1.30;;
37831;SDS011;23671;38.090;-122.570;2023-02-28T09:52:29;5.13;;;1.50;;
37831;SDS011;23671;38.090;-122.570;2023-02-28T10:01:21;4.10;;;1.60;;
37831;SDS011;23671;38.090;-122.570;2023-02-28T10:04:00;4.97;;;1.67;;
37831;SDS011;23671;38.090;-122.570;2023-02-28T10:06:53;3.35;;;1.38;;
37831;SDS011;23671;38.090;-122.570;2023-02-28T10:09:27;3.20;;;1.45;;
37831;SDS011;23671;38.090;-122.570;2023-02-28T10:12:04;2.75;;;1.27;;
37831;SDS011;23671;38.090;-122.570;2023-02-28T10:14:33;2.47;;;1.20;;
37831;SDS011;23671;38.090;-122.570;2023-02-28T10:17:10;2.33;;;1.30;;
37831;SDS011;23671;38.090;-122.570;2023-02-28T10:19:50;3.50;;;1.48;;
37831;SDS011;23671;38.090;-122.570;2023-02-28T10:25:20;3.40;;;1.45;;
37831;SDS011;23671;38.090;-122.570;2023-02-28T10:27:49;3.00;;;1.20;;
37831;SDS011;23671;38.090;-122.570;2023-02-28T10:30:24;3.47;;;1.48;;
37831;SDS011;23671;38.090;-122.570;2023-02-28T10:32:52;4.55;;;1.10;;
37831;SDS011;23671;38.090;-122.570;2023-02-28T10:35:20;4.53;;;1.65;;
37831;SDS011;23671;38.090;-122.570;2023-02-28T10:37:51;3.28;;;1.15;;
37831;SDS011;23671;38.090;-122.570;2023-02-28T10:45:57;3.08;;;1.17;;
37831;SDS011;23671;38.090;-122.570;2023-02-28T10:50:55;3.10;;;1.20;;
37831;SDS011;23671;38.090;-122.570;2023-02-28T10:55:58;2.70;;;1.42;;
37831;SDS011;23671;38.090;-122.570;2023-02-28T10:58:29;1.10;;;1.00;;
37831;SDS011;23671;38.090;-122.570;2023-02-28T11:01:12;2.78;;;1.23;;
37831;SDS011;23671;38.090;-122.570;2023-02-28T11:03:44;2.58;;;1.50;;
37831;SDS011;23671;38.090;-122.570;2023-02-28T11:06:16;3.13;;;1.20;;
37831;SDS011;23671;38.090;-122.570;2023-02-28T11:11:21;2.83;;;1.38;;
37831;SDS011;23671;38.090;-122.570;2023-02-28T11:13:52;4.22;;;1.42;;
37831;SDS011;23671;38.090;-122.570;2023-02-28T11:16:21;3.28;;;1.10;;
37831;SDS011;23671;38.090;-122.570;2023-02-28T11:18:57;2.25;;;1.23;;
37831;SDS011;23671;38.090;-122.570;2023-02-28T11:21:35;4.72;;;1.58;;
37831;SDS011;23671;38.090;-122.570;2023-02-28T11:26:46;4.03;;;1.35;;
37831;SDS011;23671;38.090;-122.570;2023-02-28T11:29:26;5.25;;;1.80;;
37831;SDS011;23671;38.090;-122.570;2023-02-28T11:32:13;3.65;;;1.52;;
37831;SDS011;23671;38.090;-122.570;2023-02-28T11:34:45;4.00;;;1.58;;
37831;SDS011;23671;38.090;-122.570;2023-02-28T11:37:25;4.18;;;1.80;;
37831;SDS011;23671;38.090;-122.570;2023-02-28T11:39:55;3.97;;;1.80;;
37831;SDS011;23671;38.090;-122.570;2023-02-28T11:45:12;3.42;;;1.70;;
37831;SDS011;23671;38.090;-122.570;2023-02-28T11:53:35;3.90;;;1.70;;
37831;SDS011;23671;38.090;-122.570;2023-02-28T11:56:30;4.70;;;1.33;;
37831;SDS011;23671;38.090;-122.570;2023-02-28T11:59:07;4.27;;;1.53;;
37831;SDS011;23671;38.090;-122.570;2023-02-28T12:13:24;4.55;;;1.33;;
37831;SDS011;23671;38.090;-122.570;2023-02-28T12:16:06;6.38;;;1.35;;
37831;SDS011;23671;38.090;-122.570;2023-02-28T12:19:06;3.00;;;1.40;;
37831;SDS011;23671;38.090;-122.570;2023-02-28T12:24:51;4.13;;;1.42;;
37831;SDS011;23671;38.090;-122.570;2023-02-28T12:27:37;3.75;;;1.50;;
37831;SDS011;23671;38.090;-122.570;2023-02-28T12:33:09;5.20;;;1.80;;
37831;SDS011;23671;38.090;-122.570;2023-02-28T12:41:02;3.85;;;1.40;;
37831;SDS011;23671;38.090;-122.570;2023-02-28T12:43:44;2.78;;;1.23;;
37831;SDS011;23671;38.090;-122.570;2023-02-28T12:46:34;3.77;;;1.30;;
37831;SDS011;23671;38.090;-122.570;2023-02-28T12:49:19;2.55;;;1.90;;
37831;SDS011;23671;38.090;-122.570;2023-02-28T12:52:00;2.50;;;1.13;;
37831;SDS011;23671;38.090;-122.570;2023-02-28T12:59:40;4.88;;;1.25;;
37831;SDS011;23671;38.090;-122.570;2023-02-28T13:10:48;2.78;;;1.08;;
37831;SDS011;23671;38.090;-122.570;2023-02-28T13:13:26;2.88;;;1.10;;
37831;SDS011;23671;38.090;-122.570;2023-02-28T13:18:34;3.03;;;1.38;;
37831;SDS011;23671;38.090;-122.570;2023-02-28T13:21:21;5.90;;;1.35;;
37831;SDS011;23671;38.090;-122.570;2023-02-28T13:34:31;5.22;;;1.42;;
37831;SDS011;23671;38.090;-122.570;2023-02-28T13:39:49;2.72;;;1.27;;
37831;SDS011;23671;38.090;-122.570;2023-02-28T13:42:22;2.42;;;1.35;;
37831;SDS011;23671;38.090;-122.570;2023-02-28T13:48:14;5.55;;;1.63;;
37831;SDS011;23671;38.090;-122.570;2023-02-28T13:50:28;1.67;;;1.00;;
37831;SDS011;23671;38.090;-122.570;2023-02-28T13:55:53;3.17;;;1.35;;
37831;SDS011;23671;38.090;-122.570;2023-02-28T14:06:32;4.32;;;1.17;;
37831;SDS011;23671;38.090;-122.570;2023-02-28T14:09:02;2.20;;;1.00;;
37831;SDS011;23671;38.090;-122.570;2023-02-28T14:11:48;2.85;;;1.17;;
37831;SDS011;23671;38.090;-122.570;2023-02-28T14:17:15;3.25;;;1.27;;
37831;SDS011;23671;38.090;-122.570;2023-02-28T14:19:44;4.47;;;1.20;;
37831;SDS011;23671;38.090;-122.570;2023-02-28T14:25:31;1.65;;;0.88;;
37831;SDS011;23671;38.090;-122.570;2023-02-28T14:28:39;1.58;;;0.93;;
37831;SDS011;23671;38.090;-122.570;2023-02-28T14:31:23;2.28;;;1.10;;
37831;SDS011;23671;38.090;-122.570;2023-02-28T14:34:20;3.47;;;1.10;;
37831;SDS011;23671;38.090;-122.570;2023-02-28T14:37:15;2.70;;;0.95;;
37831;SDS011;23671;38.090;-122.570;2023-02-28T14:39:46;1.52;;;0.90;;
37831;SDS011;23671;38.090;-122.570;2023-02-28T14:42:34;2.60;;;1.10;;
37831;SDS011;23671;38.090;-122.570;2023-02-28T14:45:18;2.42;;;1.00;;
37831;SDS011;23671;38.090;-122.570;2023-02-28T14:47:47;1.27;;;0.70;;
37831;SDS011;23671;38.090;-122.570;2023-02-28T14:50:18;3.30;;;0.80;;
37831;SDS011;23671;38.090;-122.570;2023-02-28T14:52:52;1.88;;;0.90;;
37831;SDS011;23671;38.090;-122.570;2023-02-28T14:55:23;1.50;;;0.63;;
37831;SDS011;23671;38.090;-122.570;2023-02-28T14:57:55;3.03;;;1.02;;
37831;SDS011;23671;38.090;-122.570;2023-02-28T15:00:30;2.50;;;1.00;;
37831;SDS011;23671;38.090;-122.570;2023-02-28T15:02:59;1.90;;;0.77;;
37831;SDS011;23671;38.090;-122.570;2023-02-28T15:05:47;3.67;;;1.23;;
37831;SDS011;23671;38.090;-122.570;2023-02-28T15:08:23;2.75;;;0.75;;
37831;SDS011;23671;38.090;-122.570;2023-02-28T15:13:26;1.52;;;0.73;;
37831;SDS011;23671;38.090;-122.570;2023-02-28T15:16:11;1.95;;;0.82;;
37831;SDS011;23671;38.090;-122.570;2023-02-28T15:21:29;2.13;;;0.88;;
37831;SDS011;23671;38.090;-122.570;2023-02-28T15:24:10;1.30;;;0.80;;
37831;SDS011;23671;38.090;-122.570;2023-02-28T15:29:23;1.38;;;0.70;;
37831;SDS011;23671;38.090;-122.570;2023-02-28T15:31:56;2.95;;;0.90;;
37831;SDS011;23671;38.090;-122.570;2023-02-28T15:39:53;1.60;;;0.82;;
37831;SDS011;23671;38.090;-122.570;2023-02-28T15:42:23;1.83;;;1.00;;
37831;SDS011;23671;38.090;-122.570;2023-02-28T15:44:55;1.70;;;0.60;;
37831;SDS011;23671;38.090;-122.570;2023-02-28T15:47:23;1.55;;;0.63;;
37831;SDS011;23671;38.090;-122.570;2023-02-28T15:49:53;1.55;;;0.63;;
37831;SDS011;23671;38.090;-122.570;2023-02-28T15:55:22;1.52;;;0.60;;
37831;SDS011;23671;38.090;-122.570;2023-02-28T15:57:53;1.13;;;0.65;;
37831;SDS011;23671;38.090;-122.570;2023-02-28T16:00:25;2.78;;;0.50;;
37831;SDS011;23671;38.090;-122.570;2023-02-28T16:05:25;2.53;;;1.10;;
37831;SDS011;23671;38.090;-122.570;2023-02-28T16:07:58;2.58;;;0.90;;
37831;SDS011;23671;38.090;-122.570;2023-02-28T16:10:40;2.63;;;0.80;;
37831;SDS011;23671;38.090;-122.570;2023-02-28T16:13:08;2.83;;;0.68;;
37831;SDS011;23671;38.090;-122.570;2023-02-28T16:15:41;2.15;;;0.85;;
37831;SDS011;23671;38.090;-122.570;2023-02-28T16:18:12;1.67;;;0.70;;
37831;SDS011;23671;38.090;-122.570;2023-02-28T16:20:39;1.60;;;0.80;;
37831;SDS011;23671;38.090;-122.570;2023-02-28T16:23:06;2.30;;;0.98;;
37831;SDS011;23671;38.090;-122.570;2023-02-28T16:25:37;1.58;;;0.68;;
37831;SDS011;23671;38.090;-122.570;2023-02-28T16:28:15;1.27;;;0.73;;
37831;SDS011;23671;38.090;-122.570;2023-02-28T16:30:59;3.83;;;0.70;;
37831;SDS011;23671;38.090;-122.570;2023-02-28T16:33:28;0.85;;;0.50;;
37831;SDS011;23671;38.090;-122.570;2023-02-28T16:35:56;2.10;;;0.63;;
37831;SDS011;23671;38.090;-122.570;2023-02-28T16:38:24;1.80;;;0.70;;
37831;SDS011;23671;38.090;-122.570;2023-02-28T16:40:51;3.00;;;0.80;;
37831;SDS011;23671;38.090;-122.570;2023-02-28T16:43:22;1.02;;;0.50;;
37831;SDS011;23671;38.090;-122.570;2023-02-28T16:45:55;2.70;;;0.55;;
37831;SDS011;23671;38.090;-122.570;2023-02-28T16:48:24;1.63;;;0.50;;
37831;SDS011;23671;38.090;-122.570;2023-02-28T16:50:51;1.52;;;0.77;;
37831;SDS011;23671;38.090;-122.570;2023-02-28T16:53:18;3.03;;;1.00;;
37831;SDS011;23671;38.090;-122.570;2023-02-28T16:55:46;2.10;;;0.55;;
37831;SDS011;23671;38.090;-122.570;2023-02-28T16:58:14;0.98;;;0.50;;
37831;SDS011;23671;38.090;-122.570;2023-02-28T17:00:42;3.63;;;1.05;;
37831;SDS011;23671;38.090;-122.570;2023-02-28T17:03:29;1.42;;;0.60;;
37831;SDS011;23671;38.090;-122.570;2023-02-28T17:05:56;2.85;;;0.80;;
37831;SDS011;23671;38.090;-122.570;2023-02-28T17:08:23;1.60;;;0.40;;
37831;SDS011;23671;38.090;-122.570;2023-02-28T17:10:50;1.73;;;0.63;;
37831;SDS011;23671;38.090;-122.570;2023-02-28T17:13:20;3.33;;;0.82;;
37831;SDS011;23671;38.090;-122.570;2023-02-28T17:15:47;1.80;;;0.43;;
37831;SDS011;23671;38.090;-122.570;2023-02-28T17:18:15;1.27;;;0.43;;